sensor_id;sensor_type;location;lat;lon;timestamp;temperature;humidity
72883;DHT22;61017;37.812;-122.286;2024-02-26T00:00:01;18.80;72.00
72883;DHT22;61017;37.812;-122.286;2024-02-26T00:01:52;18.60;75.30
72883;DHT22;61017;37.812;-122.286;2024-02-26T00:03:43;18.50;73.90
72883;DHT22;61017;37.812;-122.286;2024-02-26T00:05:35;18.60;73.30
72883;DHT22;61017;37.812;-122.286;2024-02-26T00:07:26;18.50;72.50
72883;DHT22;61017;37.812;-122.286;2024-02-26T00:09:17;18.70;71.70
72883;DHT22;61017;37.812;-122.286;2024-02-26T00:11:09;18.80;71.40
72883;DHT22;61017;37.812;-122.286;2024-02-26T00:13:00;18.90;70.30
72883;DHT22;61017;37.812;-122.286;2024-02-26T00:14:51;18.60;74.10
72883;DHT22;61017;37.812;-122.286;2024-02-26T00:16:43;18.60;73.10
72883;DHT22;61017;37.812;-122.286;2024-02-26T00:18:34;18.70;71.60
72883;DHT22;61017;37.812;-122.286;2024-02-26T00:20:25;18.70;70.90
72883;DHT22;61017;37.812;-122.286;2024-02-26T00:22:17;18.90;71.50
72883;DHT22;61017;37.812;-122.286;2024-02-26T00:24:08;18.90;70.20
72883;DHT22;61017;37.812;-122.286;2024-02-26T00:25:59;18.70;72.50
72883;DHT22;61017;37.812;-122.286;2024-02-26T00:27:51;18.50;72.10
72883;DHT22;61017;37.812;-122.286;2024-02-26T00:29:42;18.60;70.50
72883;DHT22;61017;37.812;-122.286;2024-02-26T00:31:33;18.70;70.50
72883;DHT22;61017;37.812;-122.286;2024-02-26T00:33:25;18.70;70.00
72883;DHT22;61017;37.812;-122.286;2024-02-26T00:35:16;18.80;69.70
72883;DHT22;61017;37.812;-122.286;2024-02-26T00:37:07;18.80;70.50
72883;DHT22;61017;37.812;-122.286;2024-02-26T00:38:58;18.60;71.50
72883;DHT22;61017;37.812;-122.286;2024-02-26T00:40:50;18.60;70.20
72883;DHT22;61017;37.812;-122.286;2024-02-26T00:42:41;18.70;69.00
72883;DHT22;61017;37.812;-122.286;2024-02-26T00:44:32;18.80;67.80
72883;DHT22;61017;37.812;-122.286;2024-02-26T00:46:24;18.90;67.00
72883;DHT22;61017;37.812;-122.286;2024-02-26T00:48:15;19.00;68.30
72883;DHT22;61017;37.812;-122.286;2024-02-26T00:50:07;18.70;69.30
72883;DHT22;61017;37.812;-122.286;2024-02-26T00:51:58;18.90;67.90
72883;DHT22;61017;37.812;-122.286;2024-02-26T00:53:49;19.10;67.30
72883;DHT22;61017;37.812;-122.286;2024-02-26T00:55:41;19.10;67.00
72883;DHT22;61017;37.812;-122.286;2024-02-26T00:57:32;19.10;67.10
72883;DHT22;61017;37.812;-122.286;2024-02-26T00:59:23;19.10;67.70
72883;DHT22;61017;37.812;-122.286;2024-02-26T01:01:15;18.80;69.30
72883;DHT22;61017;37.812;-122.286;2024-02-26T01:03:06;18.90;68.30
72883;DHT22;61017;37.812;-122.286;2024-02-26T01:04:57;18.90;67.10
72883;DHT22;61017;37.812;-122.286;2024-02-26T01:06:49;19.10;66.30
72883;DHT22;61017;37.812;-122.286;2024-02-26T01:08:40;19.20;65.50
72883;DHT22;61017;37.812;-122.286;2024-02-26T01:10:31;19.30;65.60
72883;DHT22;61017;37.812;-122.286;2024-02-26T01:12:22;19.00;67.70
72883;DHT22;61017;37.812;-122.286;2024-02-26T01:14:14;19.00;66.40
72883;DHT22;61017;37.812;-122.286;2024-02-26T01:16:25;19.20;64.90
72883;DHT22;61017;37.812;-122.286;2024-02-26T01:18:16;19.20;65.70
72883;DHT22;61017;37.812;-122.286;2024-02-26T01:20:08;19.10;66.10
72883;DHT22;61017;37.812;-122.286;2024-02-26T01:21:59;19.10;67.10
72883;DHT22;61017;37.812;-122.286;2024-02-26T01:23:51;18.80;69.60
72883;DHT22;61017;37.812;-122.286;2024-02-26T01:25:42;18.80;67.90
72883;DHT22;61017;37.812;-122.286;2024-02-26T01:27:33;19.00;67.00
72883;DHT22;61017;37.812;-122.286;2024-02-26T01:29:25;19.20;65.60
72883;DHT22;61017;37.812;-122.286;2024-02-26T01:31:16;19.40;64.90
72883;DHT22;61017;37.812;-122.286;2024-02-26T01:33:07;19.40;65.70
72883;DHT22;61017;37.812;-122.286;2024-02-26T01:34:59;18.90;68.70
72883;DHT22;61017;37.812;-122.286;2024-02-26T01:36:50;19.00;67.00
72883;DHT22;61017;37.812;-122.286;2024-02-26T01:38:41;19.10;66.70
72883;DHT22;61017;37.812;-122.286;2024-02-26T01:40:33;19.20;66.00
72883;DHT22;61017;37.812;-122.286;2024-02-26T01:42:24;19.30;65.60
72883;DHT22;61017;37.812;-122.286;2024-02-26T01:44:15;19.40;65.30
72883;DHT22;61017;37.812;-122.286;2024-02-26T01:46:08;18.90;68.20
72883;DHT22;61017;37.812;-122.286;2024-02-26T01:47:41;18.60;69.50
72883;DHT22;61017;37.812;-122.286;2024-02-26T01:49:13;18.40;70.80
72883;DHT22;61017;37.812;-122.286;2024-02-26T01:50:44;18.30;71.10
72883;DHT22;61017;37.812;-122.286;2024-02-26T01:52:15;18.20;71.90
72883;DHT22;61017;37.812;-122.286;2024-02-26T01:53:46;18.20;74.50
72883;DHT22;61017;37.812;-122.286;2024-02-26T01:55:18;18.40;71.10
72883;DHT22;61017;37.812;-122.286;2024-02-26T01:56:49;18.60;69.80
72883;DHT22;61017;37.812;-122.286;2024-02-26T01:58:20;18.70;68.90
72883;DHT22;61017;37.812;-122.286;2024-02-26T01:59:52;18.80;68.50
72883;DHT22;61017;37.812;-122.286;2024-02-26T02:01:25;18.80;68.20
72883;DHT22;61017;37.812;-122.286;2024-02-26T02:02:56;18.80;67.10
72883;DHT22;61017;37.812;-122.286;2024-02-26T02:04:27;18.70;68.70
72883;DHT22;61017;37.812;-122.286;2024-02-26T02:05:59;18.50;69.50
72883;DHT22;61017;37.812;-122.286;2024-02-26T02:07:30;18.60;69.20
72883;DHT22;61017;37.812;-122.286;2024-02-26T02:09:01;18.50;69.00
72883;DHT22;61017;37.812;-122.286;2024-02-26T02:10:32;18.70;68.30
72883;DHT22;61017;37.812;-122.286;2024-02-26T02:12:03;18.70;67.90
72883;DHT22;61017;37.812;-122.286;2024-02-26T02:13:35;18.60;68.00
72883;DHT22;61017;37.812;-122.286;2024-02-26T02:15:06;18.60;68.20
72883;DHT22;61017;37.812;-122.286;2024-02-26T02:16:37;18.50;68.70
72883;DHT22;61017;37.812;-122.286;2024-02-26T02:18:08;18.50;68.40
72883;DHT22;61017;37.812;-122.286;2024-02-26T02:19:39;18.50;68.90
72883;DHT22;61017;37.812;-122.286;2024-02-26T02:21:10;18.50;68.30
72883;DHT22;61017;37.812;-122.286;2024-02-26T02:22:42;18.50;68.00
72883;DHT22;61017;37.812;-122.286;2024-02-26T02:24:13;18.50;67.80
72883;DHT22;61017;37.812;-122.286;2024-02-26T02:25:44;18.60;67.60
72883;DHT22;61017;37.812;-122.286;2024-02-26T02:27:15;18.60;67.50
72883;DHT22;61017;37.812;-122.286;2024-02-26T02:28:46;18.50;68.40
72883;DHT22;61017;37.812;-122.286;2024-02-26T02:30:17;18.60;67.20
72883;DHT22;61017;37.812;-122.286;2024-02-26T02:31:48;18.60;68.10
72883;DHT22;61017;37.812;-122.286;2024-02-26T02:33:20;18.60;68.00
72883;DHT22;61017;37.812;-122.286;2024-02-26T02:34:51;18.60;66.70
72883;DHT22;61017;37.812;-122.286;2024-02-26T02:36:22;18.60;67.30
72883;DHT22;61017;37.812;-122.286;2024-02-26T02:37:54;18.60;66.90
72883;DHT22;61017;37.812;-122.286;2024-02-26T02:39:25;18.60;68.30
72883;DHT22;61017;37.812;-122.286;2024-02-26T02:40:56;18.50;67.90
72883;DHT22;61017;37.812;-122.286;2024-02-26T02:42:28;18.60;67.80
72883;DHT22;61017;37.812;-122.286;2024-02-26T02:43:59;18.60;67.30
72883;DHT22;61017;37.812;-122.286;2024-02-26T02:45:30;18.70;66.20
72883;DHT22;61017;37.812;-122.286;2024-02-26T02:47:01;18.80;66.90
72883;DHT22;61017;37.812;-122.286;2024-02-26T02:48:32;18.60;66.60
72883;DHT22;61017;37.812;-122.286;2024-02-26T02:50:03;18.60;66.90
72883;DHT22;61017;37.812;-122.286;2024-02-26T02:51:35;18.50;68.30
72883;DHT22;61017;37.812;-122.286;2024-02-26T02:53:06;18.60;68.40
72883;DHT22;61017;37.812;-122.286;2024-02-26T02:54:37;18.50;67.90
72883;DHT22;61017;37.812;-122.286;2024-02-26T02:56:08;18.50;67.30
72883;DHT22;61017;37.812;-122.286;2024-02-26T02:57:39;18.60;66.90
72883;DHT22;61017;37.812;-122.286;2024-02-26T02:59:11;18.60;66.80
72883;DHT22;61017;37.812;-122.286;2024-02-26T03:00:42;18.60;67.00
72883;DHT22;61017;37.812;-122.286;2024-02-26T03:02:13;18.50;67.50
72883;DHT22;61017;37.812;-122.286;2024-02-26T03:03:44;18.60;67.60
72883;DHT22;61017;37.812;-122.286;2024-02-26T03:05:15;18.70;67.00
72883;DHT22;61017;37.812;-122.286;2024-02-26T03:06:46;18.60;66.70
72883;DHT22;61017;37.812;-122.286;2024-02-26T03:08:17;18.70;67.60
72883;DHT22;61017;37.812;-122.286;2024-02-26T03:09:48;18.60;67.40
72883;DHT22;61017;37.812;-122.286;2024-02-26T03:11:19;18.60;67.30
72883;DHT22;61017;37.812;-122.286;2024-02-26T03:12:50;18.50;67.60
72883;DHT22;61017;37.812;-122.286;2024-02-26T03:14:21;18.50;68.20
72883;DHT22;61017;37.812;-122.286;2024-02-26T03:15:52;18.50;69.10
72883;DHT22;61017;37.812;-122.286;2024-02-26T03:17:24;18.60;67.40
72883;DHT22;61017;37.812;-122.286;2024-02-26T03:18:55;18.60;66.80
72883;DHT22;61017;37.812;-122.286;2024-02-26T03:20:26;18.60;66.80
72883;DHT22;61017;37.812;-122.286;2024-02-26T03:21:57;18.60;66.50
72883;DHT22;61017;37.812;-122.286;2024-02-26T03:23:28;18.60;65.70
72883;DHT22;61017;37.812;-122.286;2024-02-26T03:24:59;18.50;66.80
72883;DHT22;61017;37.812;-122.286;2024-02-26T03:26:30;18.50;66.80
72883;DHT22;61017;37.812;-122.286;2024-02-26T03:28:01;18.60;66.50
72883;DHT22;61017;37.812;-122.286;2024-02-26T03:29:32;18.70;65.90
72883;DHT22;61017;37.812;-122.286;2024-02-26T03:31:03;18.70;65.70
72883;DHT22;61017;37.812;-122.286;2024-02-26T03:32:34;18.60;65.60
72883;DHT22;61017;37.812;-122.286;2024-02-26T03:34:05;18.60;65.00
72883;DHT22;61017;37.812;-122.286;2024-02-26T03:35:36;18.60;65.90
72883;DHT22;61017;37.812;-122.286;2024-02-26T03:37:07;18.60;66.30
72883;DHT22;61017;37.812;-122.286;2024-02-26T03:38:39;18.60;66.30
72883;DHT22;61017;37.812;-122.286;2024-02-26T03:40:11;18.70;65.20
72883;DHT22;61017;37.812;-122.286;2024-02-26T03:41:42;18.90;64.00
72883;DHT22;61017;37.812;-122.286;2024-02-26T03:43:13;19.00;64.20
72883;DHT22;61017;37.812;-122.286;2024-02-26T03:44:44;18.80;64.20
72883;DHT22;61017;37.812;-122.286;2024-02-26T03:46:15;18.80;64.60
72883;DHT22;61017;37.812;-122.286;2024-02-26T03:47:46;18.60;65.00
72883;DHT22;61017;37.812;-122.286;2024-02-26T03:49:17;18.60;65.50
72883;DHT22;61017;37.812;-122.286;2024-02-26T03:50:48;18.70;65.50
72883;DHT22;61017;37.812;-122.286;2024-02-26T03:52:19;18.60;65.20
72883;DHT22;61017;37.812;-122.286;2024-02-26T03:53:50;18.70;65.00
72883;DHT22;61017;37.812;-122.286;2024-02-26T03:55:22;18.70;64.20
72883;DHT22;61017;37.812;-122.286;2024-02-26T03:56:53;18.70;64.80
72883;DHT22;61017;37.812;-122.286;2024-02-26T03:58:24;18.60;64.40
72883;DHT22;61017;37.812;-122.286;2024-02-26T03:59:55;18.60;65.00
72883;DHT22;61017;37.812;-122.286;2024-02-26T04:01:26;18.60;65.70
72883;DHT22;61017;37.812;-122.286;2024-02-26T04:02:57;18.60;64.80
72883;DHT22;61017;37.812;-122.286;2024-02-26T04:04:28;18.70;64.70
72883;DHT22;61017;37.812;-122.286;2024-02-26T04:05:59;18.70;63.90
72883;DHT22;61017;37.812;-122.286;2024-02-26T04:07:30;18.70;64.40
72883;DHT22;61017;37.812;-122.286;2024-02-26T04:09:02;18.70;63.70
72883;DHT22;61017;37.812;-122.286;2024-02-26T04:10:33;18.60;64.40
72883;DHT22;61017;37.812;-122.286;2024-02-26T04:12:04;18.60;64.60
72883;DHT22;61017;37.812;-122.286;2024-02-26T04:13:36;18.70;64.80
72883;DHT22;61017;37.812;-122.286;2024-02-26T04:15:08;18.80;63.40
72883;DHT22;61017;37.812;-122.286;2024-02-26T04:16:39;19.00;62.70
72883;DHT22;61017;37.812;-122.286;2024-02-26T04:18:10;18.90;63.00
72883;DHT22;61017;37.812;-122.286;2024-02-26T04:19:41;18.90;63.50
72883;DHT22;61017;37.812;-122.286;2024-02-26T04:21:12;18.80;63.50
72883;DHT22;61017;37.812;-122.286;2024-02-26T04:22:43;18.70;64.60
72883;DHT22;61017;37.812;-122.286;2024-02-26T04:24:14;18.70;64.70
72883;DHT22;61017;37.812;-122.286;2024-02-26T04:25:45;18.60;64.40
72883;DHT22;61017;37.812;-122.286;2024-02-26T04:27:17;18.60;64.00
72883;DHT22;61017;37.812;-122.286;2024-02-26T04:28:48;18.70;64.60
72883;DHT22;61017;37.812;-122.286;2024-02-26T04:30:19;18.70;64.10
72883;DHT22;61017;37.812;-122.286;2024-02-26T04:31:50;18.70;62.90
72883;DHT22;61017;37.812;-122.286;2024-02-26T04:33:21;18.60;64.00
72883;DHT22;61017;37.812;-122.286;2024-02-26T04:34:52;18.60;64.60
72883;DHT22;61017;37.812;-122.286;2024-02-26T04:36:23;18.60;64.10
72883;DHT22;61017;37.812;-122.286;2024-02-26T04:37:54;18.70;64.00
72883;DHT22;61017;37.812;-122.286;2024-02-26T04:39:25;18.80;62.40
72883;DHT22;61017;37.812;-122.286;2024-02-26T04:40:56;18.90;62.90
72883;DHT22;61017;37.812;-122.286;2024-02-26T04:42:27;19.00;60.80
72883;DHT22;61017;37.812;-122.286;2024-02-26T04:43:58;19.10;62.50
72883;DHT22;61017;37.812;-122.286;2024-02-26T04:45:29;18.90;62.60
72883;DHT22;61017;37.812;-122.286;2024-02-26T04:47:00;18.80;62.50
72883;DHT22;61017;37.812;-122.286;2024-02-26T04:48:31;18.80;63.10
72883;DHT22;61017;37.812;-122.286;2024-02-26T04:50:03;18.80;63.10
72883;DHT22;61017;37.812;-122.286;2024-02-26T04:51:34;18.70;63.10
72883;DHT22;61017;37.812;-122.286;2024-02-26T04:53:05;18.90;61.60
72883;DHT22;61017;37.812;-122.286;2024-02-26T04:54:36;18.80;62.80
72883;DHT22;61017;37.812;-122.286;2024-02-26T04:56:07;18.60;64.70
72883;DHT22;61017;37.812;-122.286;2024-02-26T04:57:38;18.50;67.60
72883;DHT22;61017;37.812;-122.286;2024-02-26T04:59:09;18.30;68.90
72883;DHT22;61017;37.812;-122.286;2024-02-26T05:00:40;18.30;68.00
72883;DHT22;61017;37.812;-122.286;2024-02-26T05:02:11;18.20;69.90
72883;DHT22;61017;37.812;-122.286;2024-02-26T05:03:42;18.10;69.00
72883;DHT22;61017;37.812;-122.286;2024-02-26T05:05:14;18.10;70.40
72883;DHT22;61017;37.812;-122.286;2024-02-26T05:06:45;18.00;70.30
72883;DHT22;61017;37.812;-122.286;2024-02-26T05:08:16;18.00;70.70
72883;DHT22;61017;37.812;-122.286;2024-02-26T05:09:47;17.90;71.10
72883;DHT22;61017;37.812;-122.286;2024-02-26T05:11:18;17.90;70.50
72883;DHT22;61017;37.812;-122.286;2024-02-26T05:12:49;17.90;71.40
72883;DHT22;61017;37.812;-122.286;2024-02-26T05:14:20;17.90;72.00
72883;DHT22;61017;37.812;-122.286;2024-02-26T05:15:51;17.80;71.90
72883;DHT22;61017;37.812;-122.286;2024-02-26T05:17:22;17.80;72.50
72883;DHT22;61017;37.812;-122.286;2024-02-26T05:18:53;17.80;72.90
72883;DHT22;61017;37.812;-122.286;2024-02-26T05:20:24;17.80;73.10
72883;DHT22;61017;37.812;-122.286;2024-02-26T05:21:55;17.70;72.40
72883;DHT22;61017;37.812;-122.286;2024-02-26T05:23:27;17.70;72.80
72883;DHT22;61017;37.812;-122.286;2024-02-26T05:24:58;17.70;73.00
72883;DHT22;61017;37.812;-122.286;2024-02-26T05:26:29;17.70;73.10
72883;DHT22;61017;37.812;-122.286;2024-02-26T05:28:00;17.70;73.70
72883;DHT22;61017;37.812;-122.286;2024-02-26T05:29:31;17.70;74.00
72883;DHT22;61017;37.812;-122.286;2024-02-26T05:31:02;17.70;74.10
72883;DHT22;61017;37.812;-122.286;2024-02-26T05:32:33;17.60;74.00
72883;DHT22;61017;37.812;-122.286;2024-02-26T05:34:04;17.60;74.20
72883;DHT22;61017;37.812;-122.286;2024-02-26T05:35:35;17.60;74.30
72883;DHT22;61017;37.812;-122.286;2024-02-26T05:37:06;17.60;74.20
72883;DHT22;61017;37.812;-122.286;2024-02-26T05:38:37;17.60;74.40
72883;DHT22;61017;37.812;-122.286;2024-02-26T05:40:08;17.60;74.70
72883;DHT22;61017;37.812;-122.286;2024-02-26T05:41:39;17.60;75.00
72883;DHT22;61017;37.812;-122.286;2024-02-26T05:43:10;17.60;75.10
72883;DHT22;61017;37.812;-122.286;2024-02-26T05:44:41;17.60;75.00
72883;DHT22;61017;37.812;-122.286;2024-02-26T05:46:13;17.60;75.00
72883;DHT22;61017;37.812;-122.286;2024-02-26T05:47:44;17.50;75.00
72883;DHT22;61017;37.812;-122.286;2024-02-26T05:49:15;17.50;75.10
72883;DHT22;61017;37.812;-122.286;2024-02-26T05:50:46;17.50;75.30
72883;DHT22;61017;37.812;-122.286;2024-02-26T05:52:17;17.50;75.30
72883;DHT22;61017;37.812;-122.286;2024-02-26T05:53:48;17.50;75.20
72883;DHT22;61017;37.812;-122.286;2024-02-26T05:55:19;17.50;75.50
72883;DHT22;61017;37.812;-122.286;2024-02-26T05:56:50;17.50;75.40
72883;DHT22;61017;37.812;-122.286;2024-02-26T05:58:22;17.50;75.50
72883;DHT22;61017;37.812;-122.286;2024-02-26T05:59:53;17.50;75.10
72883;DHT22;61017;37.812;-122.286;2024-02-26T06:01:24;17.50;75.60
72883;DHT22;61017;37.812;-122.286;2024-02-26T06:02:55;17.50;75.80
72883;DHT22;61017;37.812;-122.286;2024-02-26T06:04:26;17.50;75.80
72883;DHT22;61017;37.812;-122.286;2024-02-26T06:05:57;17.50;75.50
72883;DHT22;61017;37.812;-122.286;2024-02-26T06:07:28;17.50;75.70
72883;DHT22;61017;37.812;-122.286;2024-02-26T06:08:59;17.50;75.70
72883;DHT22;61017;37.812;-122.286;2024-02-26T06:10:30;17.50;75.70
72883;DHT22;61017;37.812;-122.286;2024-02-26T06:12:01;17.50;75.90
72883;DHT22;61017;37.812;-122.286;2024-02-26T06:13:32;17.50;75.80
72883;DHT22;61017;37.812;-122.286;2024-02-26T06:15:04;17.50;75.70
72883;DHT22;61017;37.812;-122.286;2024-02-26T06:16:35;17.40;75.90
72883;DHT22;61017;37.812;-122.286;2024-02-26T06:18:06;17.40;75.80
72883;DHT22;61017;37.812;-122.286;2024-02-26T06:19:37;17.40;75.80
72883;DHT22;61017;37.812;-122.286;2024-02-26T06:21:11;17.40;75.70
72883;DHT22;61017;37.812;-122.286;2024-02-26T06:22:42;17.40;75.90
72883;DHT22;61017;37.812;-122.286;2024-02-26T06:24:13;17.40;76.30
72883;DHT22;61017;37.812;-122.286;2024-02-26T06:25:44;17.40;76.00
72883;DHT22;61017;37.812;-122.286;2024-02-26T06:27:15;17.40;76.10
72883;DHT22;61017;37.812;-122.286;2024-02-26T06:28:46;17.40;75.90
72883;DHT22;61017;37.812;-122.286;2024-02-26T06:30:17;17.40;76.10
72883;DHT22;61017;37.812;-122.286;2024-02-26T06:31:48;17.40;76.20
72883;DHT22;61017;37.812;-122.286;2024-02-26T06:33:19;17.40;76.50
72883;DHT22;61017;37.812;-122.286;2024-02-26T06:34:50;17.40;76.40
72883;DHT22;61017;37.812;-122.286;2024-02-26T06:36:21;17.40;76.40
72883;DHT22;61017;37.812;-122.286;2024-02-26T06:37:52;17.40;76.30
72883;DHT22;61017;37.812;-122.286;2024-02-26T06:39:23;17.40;76.50
72883;DHT22;61017;37.812;-122.286;2024-02-26T06:40:54;17.30;76.60
72883;DHT22;61017;37.812;-122.286;2024-02-26T06:42:25;17.30;76.70
72883;DHT22;61017;37.812;-122.286;2024-02-26T06:43:57;17.30;76.90
72883;DHT22;61017;37.812;-122.286;2024-02-26T06:45:28;17.30;76.80
72883;DHT22;61017;37.812;-122.286;2024-02-26T06:46:59;17.30;76.90
72883;DHT22;61017;37.812;-122.286;2024-02-26T06:48:30;17.30;77.00
72883;DHT22;61017;37.812;-122.286;2024-02-26T06:50:01;17.30;77.10
72883;DHT22;61017;37.812;-122.286;2024-02-26T06:51:32;17.30;76.80
72883;DHT22;61017;37.812;-122.286;2024-02-26T06:53:03;17.30;76.90
72883;DHT22;61017;37.812;-122.286;2024-02-26T06:54:34;17.30;76.70
72883;DHT22;61017;37.812;-122.286;2024-02-26T06:56:05;17.30;76.90
72883;DHT22;61017;37.812;-122.286;2024-02-26T06:57:37;17.30;77.00
72883;DHT22;61017;37.812;-122.286;2024-02-26T06:59:10;17.30;77.00
72883;DHT22;61017;37.812;-122.286;2024-02-26T07:00:41;17.30;77.10
72883;DHT22;61017;37.812;-122.286;2024-02-26T07:02:13;17.30;76.80
72883;DHT22;61017;37.812;-122.286;2024-02-26T07:03:44;17.30;76.80
72883;DHT22;61017;37.812;-122.286;2024-02-26T07:05:15;17.30;76.80
72883;DHT22;61017;37.812;-122.286;2024-02-26T07:06:46;17.30;76.70
72883;DHT22;61017;37.812;-122.286;2024-02-26T07:08:18;17.30;77.00
72883;DHT22;61017;37.812;-122.286;2024-02-26T07:09:49;17.30;76.90
72883;DHT22;61017;37.812;-122.286;2024-02-26T07:11:20;17.30;77.30
72883;DHT22;61017;37.812;-122.286;2024-02-26T07:12:51;17.30;76.90
72883;DHT22;61017;37.812;-122.286;2024-02-26T07:14:22;17.30;77.00
72883;DHT22;61017;37.812;-122.286;2024-02-26T07:15:53;17.30;77.10
72883;DHT22;61017;37.812;-122.286;2024-02-26T07:17:24;17.30;77.00
72883;DHT22;61017;37.812;-122.286;2024-02-26T07:18:55;17.30;77.10
72883;DHT22;61017;37.812;-122.286;2024-02-26T07:20:26;17.30;77.20
72883;DHT22;61017;37.812;-122.286;2024-02-26T07:21:57;17.30;77.30
72883;DHT22;61017;37.812;-122.286;2024-02-26T07:23:28;17.30;77.10
72883;DHT22;61017;37.812;-122.286;2024-02-26T07:24:59;17.30;77.20
72883;DHT22;61017;37.812;-122.286;2024-02-26T07:26:30;17.30;77.20
72883;DHT22;61017;37.812;-122.286;2024-02-26T07:28:01;17.30;77.30
72883;DHT22;61017;37.812;-122.286;2024-02-26T07:29:32;17.30;77.30
72883;DHT22;61017;37.812;-122.286;2024-02-26T07:31:03;17.30;77.30
72883;DHT22;61017;37.812;-122.286;2024-02-26T07:32:34;17.30;77.20
72883;DHT22;61017;37.812;-122.286;2024-02-26T07:34:05;17.30;77.20
72883;DHT22;61017;37.812;-122.286;2024-02-26T07:35:36;17.30;77.30
72883;DHT22;61017;37.812;-122.286;2024-02-26T07:37:08;17.20;77.50
72883;DHT22;61017;37.812;-122.286;2024-02-26T07:38:39;17.30;77.60
72883;DHT22;61017;37.812;-122.286;2024-02-26T07:40:10;17.20;77.50
72883;DHT22;61017;37.812;-122.286;2024-02-26T07:41:41;17.20;77.20
72883;DHT22;61017;37.812;-122.286;2024-02-26T07:43:12;17.20;77.50
72883;DHT22;61017;37.812;-122.286;2024-02-26T07:44:43;17.20;77.70
72883;DHT22;61017;37.812;-122.286;2024-02-26T07:46:14;17.20;78.00
72883;DHT22;61017;37.812;-122.286;2024-02-26T07:47:46;17.20;77.30
72883;DHT22;61017;37.812;-122.286;2024-02-26T07:49:17;17.20;77.40
72883;DHT22;61017;37.812;-122.286;2024-02-26T07:50:48;17.30;77.50
72883;DHT22;61017;37.812;-122.286;2024-02-26T07:52:19;17.30;77.60
72883;DHT22;61017;37.812;-122.286;2024-02-26T07:53:50;17.30;77.60
72883;DHT22;61017;37.812;-122.286;2024-02-26T07:55:21;17.30;78.00
72883;DHT22;61017;37.812;-122.286;2024-02-26T07:56:52;17.50;76.10
72883;DHT22;61017;37.812;-122.286;2024-02-26T07:58:23;17.60;73.80
72883;DHT22;61017;37.812;-122.286;2024-02-26T07:59:54;17.80;72.20
72883;DHT22;61017;37.812;-122.286;2024-02-26T08:01:25;18.00;70.60
72883;DHT22;61017;37.812;-122.286;2024-02-26T08:02:57;18.30;69.20
72883;DHT22;61017;37.812;-122.286;2024-02-26T08:04:28;18.40;68.90
72883;DHT22;61017;37.812;-122.286;2024-02-26T08:05:59;18.10;70.70
72883;DHT22;61017;37.812;-122.286;2024-02-26T08:07:30;18.10;69.20
72883;DHT22;61017;37.812;-122.286;2024-02-26T08:09:03;18.20;68.40
72883;DHT22;61017;37.812;-122.286;2024-02-26T08:10:34;18.40;67.60
72883;DHT22;61017;37.812;-122.286;2024-02-26T08:12:06;18.50;66.30
72883;DHT22;61017;37.812;-122.286;2024-02-26T08:13:37;18.50;65.40
72883;DHT22;61017;37.812;-122.286;2024-02-26T08:15:08;18.60;66.10
72883;DHT22;61017;37.812;-122.286;2024-02-26T08:16:39;18.30;66.90
72883;DHT22;61017;37.812;-122.286;2024-02-26T08:18:10;18.20;67.10
72883;DHT22;61017;37.812;-122.286;2024-02-26T08:19:41;18.40;65.70
72883;DHT22;61017;37.812;-122.286;2024-02-26T08:21:12;18.50;65.50
72883;DHT22;61017;37.812;-122.286;2024-02-26T08:22:43;18.60;65.10
72883;DHT22;61017;37.812;-122.286;2024-02-26T08:24:14;18.60;64.30
72883;DHT22;61017;37.812;-122.286;2024-02-26T08:25:45;18.70;63.80
72883;DHT22;61017;37.812;-122.286;2024-02-26T08:27:16;18.60;65.20
72883;DHT22;61017;37.812;-122.286;2024-02-26T08:28:48;18.30;66.30
72883;DHT22;61017;37.812;-122.286;2024-02-26T08:30:19;18.30;65.20
72883;DHT22;61017;37.812;-122.286;2024-02-26T08:31:50;18.40;65.00
72883;DHT22;61017;37.812;-122.286;2024-02-26T08:33:21;18.50;64.80
72883;DHT22;61017;37.812;-122.286;2024-02-26T08:34:52;18.50;64.60
72883;DHT22;61017;37.812;-122.286;2024-02-26T08:36:23;18.60;63.10
72883;DHT22;61017;37.812;-122.286;2024-02-26T08:37:54;18.70;63.10
72883;DHT22;61017;37.812;-122.286;2024-02-26T08:39:25;18.50;64.70
72883;DHT22;61017;37.812;-122.286;2024-02-26T08:40:56;18.30;64.70
72883;DHT22;61017;37.812;-122.286;2024-02-26T08:42:27;18.50;63.90
72883;DHT22;61017;37.812;-122.286;2024-02-26T08:43:58;18.60;63.20
72883;DHT22;61017;37.812;-122.286;2024-02-26T08:45:29;18.60;63.40
72883;DHT22;61017;37.812;-122.286;2024-02-26T08:47:00;18.60;63.20
72883;DHT22;61017;37.812;-122.286;2024-02-26T08:48:31;18.60;62.40
72883;DHT22;61017;37.812;-122.286;2024-02-26T08:50:03;18.50;64.20
72883;DHT22;61017;37.812;-122.286;2024-02-26T08:51:34;18.30;64.80
72883;DHT22;61017;37.812;-122.286;2024-02-26T08:53:05;18.30;64.70
72883;DHT22;61017;37.812;-122.286;2024-02-26T08:54:36;18.50;63.30
72883;DHT22;61017;37.812;-122.286;2024-02-26T08:56:07;18.50;63.50
72883;DHT22;61017;37.812;-122.286;2024-02-26T08:57:38;18.60;62.50
72883;DHT22;61017;37.812;-122.286;2024-02-26T08:59:09;18.70;62.10
72883;DHT22;61017;37.812;-122.286;2024-02-26T09:00:40;18.70;62.80
72883;DHT22;61017;37.812;-122.286;2024-02-26T09:02:11;18.50;64.60
72883;DHT22;61017;37.812;-122.286;2024-02-26T09:03:42;18.30;64.70
72883;DHT22;61017;37.812;-122.286;2024-02-26T09:05:13;18.60;63.10
72883;DHT22;61017;37.812;-122.286;2024-02-26T09:06:45;18.60;62.90
72883;DHT22;61017;37.812;-122.286;2024-02-26T09:08:16;18.80;61.40
72883;DHT22;61017;37.812;-122.286;2024-02-26T09:09:47;18.80;61.60
72883;DHT22;61017;37.812;-122.286;2024-02-26T09:11:18;18.90;61.40
72883;DHT22;61017;37.812;-122.286;2024-02-26T09:12:49;18.70;62.80
72883;DHT22;61017;37.812;-122.286;2024-02-26T09:14:20;18.50;64.10
72883;DHT22;61017;37.812;-122.286;2024-02-26T09:15:51;18.40;64.00
72883;DHT22;61017;37.812;-122.286;2024-02-26T09:17:22;18.50;62.90
72883;DHT22;61017;37.812;-122.286;2024-02-26T09:18:53;18.40;64.10
72883;DHT22;61017;37.812;-122.286;2024-02-26T09:20:24;18.60;62.60
72883;DHT22;61017;37.812;-122.286;2024-02-26T09:21:55;18.60;62.80
72883;DHT22;61017;37.812;-122.286;2024-02-26T09:23:26;18.60;63.00
72883;DHT22;61017;37.812;-122.286;2024-02-26T09:24:57;18.50;63.70
72883;DHT22;61017;37.812;-122.286;2024-02-26T09:26:28;18.30;64.50
72883;DHT22;61017;37.812;-122.286;2024-02-26T09:27:59;18.50;63.20